Aviation Digital Data Service (ADDS)

Output produced by METARs form (0130 UTC 29 April 2017)
found at http://aviationweather.gov/adds/metars/
 
KHKY 282336Z 2900/2924 20005KT P6SM FEW040 SCT250 
     FM290700 20004KT 3SM BR SCT035 
     FM290900 VRB03KT 2SM BR SCT005 
     TEMPO 2909/2912 BKN005 
     FM291400 20004KT P6SM SCT015 
     FM291700 21008KT P6SM SCT050